Time,TemperatureF,DewpointF,PressureIn,WindDirection,WindDirectionDegrees,WindSpeedMPH,WindSpeedGustMPH,Humidity,HourlyPrecipIn,Conditions,Clouds,dailyrainin,SoftwareType,DateUTC
2013-02-22 00:00:00,37.6,34.7,30.11,West,278,10.0,10.0,89,0.18,,---,0.26,VWS V14.01,2013-02-22 05:00:00,
2013-02-22 00:01:00,37.6,34.7,30.11,NNW,342,4.0,5.0,89,0.18,,---,0.26,VWS V14.01,2013-02-22 05:01:00,
2013-02-22 00:02:00,37.6,34.7,30.10,NNW,342,0.0,5.0,89,0.19,,---,0.27,VWS V14.01,2013-02-22 05:02:00,
2013-02-22 00:07:00,37.5,34.3,30.10,NE,44,0.0,6.0,88,0.19,,---,0.01,VWS V14.01,2013-02-22 05:07:00,
2013-02-22 00:12:00,37.5,34.3,30.10,NNE,32,2.0,8.0,88,0.20,,---,0.03,VWS V14.01,2013-02-22 05:12:00,
2013-02-22 00:17:00,37.5,34.6,30.11,NNE,32,4.0,4.0,89,0.19,,---,0.04,VWS V14.01,2013-02-22 05:17:00,
2013-02-22 00:22:00,37.3,34.4,30.11,NW,319,0.0,7.0,89,0.18,,---,0.05,VWS V14.01,2013-02-22 05:22:00,
2013-02-22 00:27:00,37.3,34.4,30.11,East,83,12.0,12.0,89,0.17,,---,0.06,VWS V14.01,2013-02-22 05:27:00,
2013-02-22 00:32:00,37.2,34.0,30.12,South,185,2.0,3.0,88,0.16,,---,0.07,VWS V14.01,2013-02-22 05:32:00,
2013-02-22 00:37:00,37.2,34.3,30.12,SW,215,2.0,5.0,89,0.14,,---,0.07,VWS V14.01,2013-02-22 05:37:00,
2013-02-22 00:42:00,37.2,34.5,30.12,ESE,121,2.0,4.0,90,0.15,,---,0.09,VWS V14.01,2013-02-22 05:42:00,
2013-02-22 00:47:00,37.2,34.8,30.14,ESE,115,0.0,4.0,91,0.14,,---,0.09,VWS V14.01,2013-02-22 05:47:00,
2013-02-22 00:52:00,37.2,34.8,30.14,ESE,110,2.0,4.0,91,0.14,,---,0.10,VWS V14.01,2013-02-22 05:52:00,
2013-02-22 00:57:00,37.2,34.5,30.14,ENE,76,2.0,13.0,90,0.14,,---,0.11,VWS V14.01,2013-02-22 05:57:00,
2013-02-22 01:02:00,37.0,34.3,30.12,East,97,2.0,7.0,90,0.13,,---,0.11,VWS V14.01,2013-02-22 06:02:00,
2013-02-22 01:07:00,37.0,34.3,30.12,ENE,59,2.0,7.0,90,0.12,,---,0.12,VWS V14.01,2013-02-22 06:07:00,
2013-02-22 01:12:00,37.0,34.3,30.12,East,94,8.0,12.0,90,0.12,,---,0.13,VWS V14.01,2013-02-22 06:12:00,
2013-02-22 01:18:00,37.0,34.3,30.11,WNW,292,2.0,6.0,90,0.10,,---,0.13,VWS V14.01,2013-02-22 06:18:00,
2013-02-22 01:23:00,37.0,34.3,30.11,SE,126,14.0,14.0,90,0.10,,---,0.14,VWS V14.01,2013-02-22 06:23:00,
2013-02-22 01:28:00,37.0,34.3,30.11,NE,49,20.0,20.0,90,0.10,,---,0.15,VWS V14.01,2013-02-22 06:28:00,
2013-02-22 01:33:00,37.0,34.3,30.11,ESE,107,8.0,10.0,90,0.09,,---,0.15,VWS V14.01,2013-02-22 06:33:00,
2013-02-22 01:38:00,37.0,34.1,30.11,ENE,71,6.0,7.0,89,0.09,,---,0.16,VWS V14.01,2013-02-22 06:38:00,
2013-02-22 01:43:00,37.0,34.1,30.11,ESE,111,4.0,4.0,89,0.08,,---,0.17,VWS V14.01,2013-02-22 06:43:00,
2013-02-22 01:48:00,37.0,34.3,30.09,North,360,4.0,5.0,90,0.08,,---,0.17,VWS V14.01,2013-02-22 06:48:00,
2013-02-22 01:53:00,36.9,34.2,30.09,NW,319,10.0,10.0,90,0.08,,---,0.18,VWS V14.01,2013-02-22 06:53:00,
2013-02-22 01:58:00,36.9,34.2,30.09,SSE,165,8.0,13.0,90,0.08,,---,0.19,VWS V14.01,2013-02-22 06:58:00,
2013-02-22 02:03:00,36.8,34.2,30.07,North,355,4.0,4.0,90,0.08,,---,0.19,VWS V14.01,2013-02-22 07:03:00,
2013-02-22 02:08:00,36.8,34.4,30.07,NW,317,8.0,8.0,91,0.07,,---,0.19,VWS V14.01,2013-02-22 07:08:00,
2013-02-22 02:13:00,36.8,34.2,30.07,ESE,117,4.0,5.0,90,0.06,,---,0.19,VWS V14.01,2013-02-22 07:13:00,
2013-02-22 02:18:00,36.8,34.4,30.09,ENE,57,4.0,5.0,91,0.06,,---,0.19,VWS V14.01,2013-02-22 07:18:00,
2013-02-22 02:23:00,36.9,34.5,30.09,ENE,73,10.0,10.0,91,0.05,,---,0.19,VWS V14.01,2013-02-22 07:23:00,
2013-02-22 02:28:00,36.9,34.2,30.09,ESE,116,0.0,2.0,90,0.04,,---,0.19,VWS V14.01,2013-02-22 07:28:00,
2013-02-22 02:33:00,36.8,34.2,30.08,East,81,4.0,4.0,90,0.04,,---,0.19,VWS V14.01,2013-02-22 07:33:00,
2013-02-22 02:38:00,36.8,34.2,30.08,ESE,103,4.0,7.0,90,0.04,,---,0.20,VWS V14.01,2013-02-22 07:38:00,
2013-02-22 02:43:00,36.8,34.4,30.08,North,355,4.0,4.0,91,0.04,,---,0.21,VWS V14.01,2013-02-22 07:43:00,
2013-02-22 02:48:00,36.8,34.4,30.07,North,11,16.0,16.0,91,0.04,,---,0.21,VWS V14.01,2013-02-22 07:48:00,
2013-02-22 02:53:00,36.8,34.4,30.07,ESE,121,12.0,12.0,91,0.03,,---,0.21,VWS V14.01,2013-02-22 07:53:00,
2013-02-22 02:58:00,36.8,34.4,30.07,West,267,2.0,4.0,91,0.03,,---,0.22,VWS V14.01,2013-02-22 07:58:00,
2013-02-22 03:03:00,36.8,34.7,30.06,NW,315,6.0,6.0,92,0.03,,---,0.22,VWS V14.01,2013-02-22 08:03:00,
2013-02-22 03:08:00,36.8,34.7,30.06,ESE,103,2.0,5.0,92,0.03,,---,0.22,VWS V14.01,2013-02-22 08:08:00,
2013-02-22 03:13:00,36.9,34.5,30.06,ENE,74,8.0,8.0,91,0.03,,---,0.22,VWS V14.01,2013-02-22 08:13:00,
2013-02-22 03:18:00,36.9,34.5,30.06,SSE,150,4.0,5.0,91,0.03,,---,0.22,VWS V14.01,2013-02-22 08:18:00,
2013-02-22 03:23:00,36.9,34.2,30.06,NE,41,10.0,10.0,90,0.04,,---,0.23,VWS V14.01,2013-02-22 08:23:00,
2013-02-22 03:28:00,37.0,34.3,30.06,WNW,286,12.0,12.0,90,0.04,,---,0.23,VWS V14.01,2013-02-22 08:28:00,
2013-02-22 03:33:00,37.0,34.3,30.04,ESE,102,16.0,16.0,90,0.04,,---,0.23,VWS V14.01,2013-02-22 08:33:00,
2013-02-22 03:38:00,37.0,34.3,30.04,ESE,110,0.0,2.0,90,0.03,,---,0.23,VWS V14.01,2013-02-22 08:38:00,
2013-02-22 03:43:00,36.9,34.5,30.04,East,79,8.0,9.0,91,0.04,,---,0.24,VWS V14.01,2013-02-22 08:43:00,
2013-02-22 03:48:00,36.8,34.2,30.03,NNE,12,12.0,12.0,90,0.03,,---,0.24,VWS V14.01,2013-02-22 08:48:00,
2013-02-22 03:53:00,36.8,34.2,30.03,West,280,12.0,12.0,90,0.03,,---,0.24,VWS V14.01,2013-02-22 08:53:00,
2013-02-22 03:59:00,36.8,34.2,30.03,SW,222,12.0,12.0,90,0.03,,---,0.24,VWS V14.01,2013-02-22 08:59:00,
2013-02-22 04:04:00,36.8,33.9,30.05,ESE,111,6.0,6.0,89,0.02,,---,0.24,VWS V14.01,2013-02-22 09:04:00,
2013-02-22 04:09:00,36.8,33.9,30.05,NE,37,2.0,3.0,89,0.02,,---,0.24,VWS V14.01,2013-02-22 09:09:00,
2013-02-22 04:14:00,36.8,33.9,30.05,NW,304,0.0,2.0,89,0.02,,---,0.24,VWS V14.01,2013-02-22 09:14:00,
2013-02-22 04:19:00,36.6,33.7,30.05,ENE,60,4.0,10.0,89,0.02,,---,0.24,VWS V14.01,2013-02-22 09:19:00,
2013-02-22 04:24:00,36.5,33.8,30.05,NNW,340,0.0,6.0,90,0.02,,---,0.25,VWS V14.01,2013-02-22 09:24:00,
2013-02-22 04:29:00,36.3,33.7,30.05,NNW,336,0.0,4.0,90,0.02,,---,0.25,VWS V14.01,2013-02-22 09:29:00,
2013-02-22 04:34:00,36.3,33.9,30.06,NW,304,4.0,4.0,91,0.02,,---,0.25,VWS V14.01,2013-02-22 09:34:00,
2013-02-22 04:39:00,36.2,33.6,30.06,ENE,59,10.0,10.0,90,0.02,,---,0.25,VWS V14.01,2013-02-22 09:39:00,
2013-02-22 04:44:00,36.2,33.3,30.06,East,98,12.0,12.0,89,0.01,,---,0.25,VWS V14.01,2013-02-22 09:44:00,
2013-02-22 04:49:00,36.0,33.1,30.06,NNW,341,8.0,9.0,89,0.01,,---,0.25,VWS V14.01,2013-02-22 09:49:00,
2013-02-22 04:54:00,36.0,33.1,30.06,SE,146,8.0,9.0,89,0.02,,---,0.26,VWS V14.01,2013-02-22 09:54:00,
2013-02-22 04:59:00,36.0,33.4,30.06,East,84,12.0,12.0,90,0.02,,---,0.26,VWS V14.01,2013-02-22 09:59:00,
2013-02-22 05:04:00,35.9,33.0,30.06,NE,37,14.0,14.0,89,0.02,,---,0.26,VWS V14.01,2013-02-22 10:04:00,
2013-02-22 05:09:00,35.9,33.0,30.06,NW,314,2.0,7.0,89,0.02,,---,0.26,VWS V14.01,2013-02-22 10:09:00,
2013-02-22 05:14:00,35.8,32.9,30.06,NNE,30,16.0,16.0,89,0.02,,---,0.26,VWS V14.01,2013-02-22 10:14:00,
2013-02-22 05:19:00,35.8,32.9,30.08,ESE,111,2.0,14.0,89,0.03,,---,0.27,VWS V14.01,2013-02-22 10:19:00,
2013-02-22 05:24:00,35.8,32.9,30.08,NNE,21,4.0,8.0,89,0.02,,---,0.27,VWS V14.01,2013-02-22 10:24:00,
2013-02-22 05:29:00,35.6,32.7,30.08,NNW,336,6.0,6.0,89,0.02,,---,0.27,VWS V14.01,2013-02-22 10:29:00,
2013-02-22 05:34:00,35.6,32.7,30.10,East,92,6.0,10.0,89,0.02,,---,0.27,VWS V14.01,2013-02-22 10:34:00,
2013-02-22 05:39:00,35.5,32.6,30.10,NNW,328,10.0,10.0,89,0.02,,---,0.27,VWS V14.01,2013-02-22 10:39:00,
2013-02-22 05:44:00,35.5,32.6,30.10,ESE,123,16.0,16.0,89,0.02,,---,0.27,VWS V14.01,2013-02-22 10:44:00,
2013-02-22 05:49:00,35.5,32.6,30.10,NE,35,0.0,4.0,89,0.02,,---,0.27,VWS V14.01,2013-02-22 10:49:00,
2013-02-22 05:54:00,35.3,32.4,30.10,ENE,69,14.0,14.0,89,0.02,,---,0.27,VWS V14.01,2013-02-22 10:54:00,
2013-02-22 05:59:00,35.3,32.4,30.10,ESE,109,2.0,7.0,89,0.01,,---,0.27,VWS V14.01,2013-02-22 10:59:00,
2013-02-22 06:04:00,35.3,32.1,30.10,East,98,8.0,8.0,88,0.01,,---,0.27,VWS V14.01,2013-02-22 11:04:00,
2013-02-22 06:09:00,35.2,32.3,30.10,ENE,61,4.0,4.0,89,0.01,,---,0.27,VWS V14.01,2013-02-22 11:09:00,
2013-02-22 06:15:00,35.2,32.3,30.10,NNW,347,4.0,4.0,89,0.01,,---,0.27,VWS V14.01,2013-02-22 11:15:00,
2013-02-22 06:20:00,35.0,32.1,30.12,NE,44,16.0,16.0,89,0.00,,---,0.27,VWS V14.01,2013-02-22 11:20:00,
2013-02-22 06:25:00,35.0,32.4,30.12,SSE,166,12.0,12.0,90,0.00,,---,0.27,VWS V14.01,2013-02-22 11:25:00,
2013-02-22 06:30:00,35.0,32.1,30.12,SSE,163,4.0,4.0,89,0.00,,---,0.27,VWS V14.01,2013-02-22 11:30:00,
2013-02-22 06:35:00,35.0,32.4,30.13,NE,41,0.0,7.0,90,0.00,,---,0.27,VWS V14.01,2013-02-22 11:35:00,
2013-02-22 06:40:00,34.9,32.3,30.13,WNW,289,6.0,6.0,90,0.01,,---,0.28,VWS V14.01,2013-02-22 11:40:00,
2013-02-22 06:45:00,34.9,32.0,30.13,East,88,18.0,18.0,89,0.01,,---,0.28,VWS V14.01,2013-02-22 11:45:00,
2013-02-22 06:50:00,34.9,32.0,30.13,ESE,114,0.0,6.0,89,0.01,,---,0.28,VWS V14.01,2013-02-22 11:50:00,
2013-02-22 06:55:00,34.7,31.8,30.13,ENE,74,4.0,4.0,89,0.01,,---,0.28,VWS V14.01,2013-02-22 11:55:00,
2013-02-22 07:00:00,34.7,31.8,30.13,East,100,10.0,10.0,89,0.01,,---,0.28,VWS V14.01,2013-02-22 12:00:00,
2013-02-22 07:05:00,34.6,31.7,30.13,ESE,118,4.0,6.0,89,0.01,,---,0.28,VWS V14.01,2013-02-22 12:05:00,
2013-02-22 07:10:00,34.6,31.7,30.13,SW,231,10.0,10.0,89,0.01,,---,0.28,VWS V14.01,2013-02-22 12:10:00,
2013-02-22 07:15:00,34.6,31.7,30.13,ESE,113,6.0,7.0,89,0.01,,---,0.28,VWS V14.01,2013-02-22 12:15:00,
2013-02-22 07:20:00,34.6,31.4,30.13,SSW,198,0.0,7.0,88,0.01,,---,0.28,VWS V14.01,2013-02-22 12:20:00,
2013-02-22 07:25:00,34.6,31.1,30.13,East,94,2.0,8.0,87,0.01,,---,0.28,VWS V14.01,2013-02-22 12:25:00,
2013-02-22 07:30:00,34.6,30.9,30.13,East,84,2.0,4.0,86,0.01,,---,0.28,VWS V14.01,2013-02-22 12:30:00,
2013-02-22 07:35:00,34.6,30.9,30.13,WSW,248,6.0,6.0,86,0.01,,---,0.28,VWS V14.01,2013-02-22 12:35:00,
2013-02-22 07:40:00,34.4,30.4,30.13,SE,131,6.0,6.0,85,0.01,,---,0.28,VWS V14.01,2013-02-22 12:40:00,
2013-02-22 07:45:00,34.4,30.6,30.13,NW,307,0.0,6.0,86,0.00,,---,0.28,VWS V14.01,2013-02-22 12:45:00,
2013-02-22 07:50:00,34.4,30.1,30.12,East,88,14.0,14.0,84,0.00,,---,0.28,VWS V14.01,2013-02-22 12:50:00,
2013-02-22 07:55:00,34.3,29.7,30.12,South,169,8.0,8.0,83,0.00,,---,0.28,VWS V14.01,2013-02-22 12:55:00,
2013-02-22 08:00:00,34.4,29.2,30.12,NNE,28,10.0,10.0,81,0.00,,---,0.28,VWS V14.01,2013-02-22 13:00:00,
2013-02-22 08:05:00,34.4,29.8,30.12,NNE,20,2.0,4.0,83,0.00,,---,0.28,VWS V14.01,2013-02-22 13:05:00,
2013-02-22 08:10:00,34.4,29.5,30.12,South,180,4.0,6.0,82,0.00,,---,0.28,VWS V14.01,2013-02-22 13:10:00,
2013-02-22 08:15:00,34.4,28.6,30.12,WSW,249,10.0,12.0,79,0.00,,---,0.28,VWS V14.01,2013-02-22 13:15:00,
2013-02-22 08:20:00,34.6,28.8,30.13,SSE,159,4.0,5.0,79,0.00,,---,0.28,VWS V14.01,2013-02-22 13:20:00,
2013-02-22 08:25:00,34.6,28.5,30.13,WSW,257,10.0,10.0,78,0.00,,---,0.28,VWS V14.01,2013-02-22 13:25:00,
2013-02-22 08:30:00,34.7,28.5,30.13,WNW,283,2.0,8.0,78,0.00,,---,0.28,VWS V14.01,2013-02-22 13:30:00,
2013-02-22 08:35:00,34.7,27.9,30.14,South,186,14.0,14.0,76,0.00,,---,0.28,VWS V14.01,2013-02-22 13:35:00,
2013-02-22 08:40:00,34.9,28.4,30.14,ESE,116,4.0,7.0,77,0.00,,---,0.28,VWS V14.01,2013-02-22 13:40:00,
2013-02-22 08:45:00,34.9,28.8,30.14,WSW,243,10.0,10.0,78,0.00,,---,0.28,VWS V14.01,2013-02-22 13:45:00,
2013-02-22 08:50:00,35.0,27.9,30.14,SW,234,20.0,20.0,75,0.00,,---,0.28,VWS V14.01,2013-02-22 13:50:00,
2013-02-22 08:55:00,35.0,27.9,30.14,South,175,8.0,10.0,75,0.00,,---,0.28,VWS V14.01,2013-02-22 13:55:00,
2013-02-22 09:00:00,35.0,28.2,30.14,South,177,10.0,11.0,76,0.00,,---,0.28,VWS V14.01,2013-02-22 14:00:00,
2013-02-22 09:05:00,35.0,28.2,30.15,West,259,10.0,10.0,76,0.00,,---,0.28,VWS V14.01,2013-02-22 14:05:00,
2013-02-22 09:10:00,35.2,28.4,30.15,WSW,251,12.0,12.0,76,0.00,,---,0.28,VWS V14.01,2013-02-22 14:10:00,
2013-02-22 09:15:00,35.0,28.2,30.15,WSW,244,14.0,14.0,76,0.00,,---,0.28,VWS V14.01,2013-02-22 14:15:00,
2013-02-22 09:21:00,35.2,29.4,30.15,WSW,254,4.0,8.0,79,0.00,,---,0.28,VWS V14.01,2013-02-22 14:21:00,
2013-02-22 09:26:00,35.2,29.4,30.15,SW,226,2.0,8.0,79,0.00,,---,0.28,VWS V14.01,2013-02-22 14:26:00,
2013-02-22 09:31:00,35.3,28.5,30.15,WSW,248,6.0,8.0,76,0.00,,---,0.28,VWS V14.01,2013-02-22 14:31:00,
2013-02-22 09:36:00,35.3,28.8,30.15,SW,226,6.0,12.0,77,0.00,,---,0.28,VWS V14.01,2013-02-22 14:36:00,
2013-02-22 09:41:00,35.5,29.3,30.15,SSW,194,2.0,6.0,78,0.00,,---,0.28,VWS V14.01,2013-02-22 14:41:00,
2013-02-22 09:46:00,35.6,29.1,30.15,ESE,113,2.0,10.0,77,0.00,,---,0.28,VWS V14.01,2013-02-22 14:46:00,
2013-02-22 09:51:00,35.6,29.1,30.14,ESE,110,20.0,20.0,77,0.00,,---,0.28,VWS V14.01,2013-02-22 14:51:00,
2013-02-22 09:56:00,35.8,29.6,30.14,NNW,341,2.0,9.0,78,0.00,,---,0.28,VWS V14.01,2013-02-22 14:56:00,
2013-02-22 10:01:00,35.9,29.7,30.14,NNE,22,2.0,7.0,78,0.00,,---,0.28,VWS V14.01,2013-02-22 15:01:00,
2013-02-22 10:06:00,36.0,30.1,30.15,WSW,240,2.0,11.0,79,0.00,,---,0.28,VWS V14.01,2013-02-22 15:06:00,
2013-02-22 10:11:00,36.0,30.1,30.15,SSW,208,0.0,8.0,79,0.00,,---,0.28,VWS V14.01,2013-02-22 15:11:00,
2013-02-22 10:16:00,36.2,30.6,30.15,ESE,111,10.0,10.0,80,0.00,,---,0.28,VWS V14.01,2013-02-22 15:16:00,
2013-02-22 10:21:00,36.2,30.9,30.15,SSE,161,2.0,9.0,81,0.00,,---,0.28,VWS V14.01,2013-02-22 15:21:00,
2013-02-22 10:26:00,36.3,31.0,30.15,SW,229,4.0,6.0,81,0.00,,---,0.28,VWS V14.01,2013-02-22 15:26:00,
2013-02-22 10:31:00,36.6,31.3,30.15,East,101,10.0,10.0,81,0.00,,---,0.28,VWS V14.01,2013-02-22 15:31:00,
2013-02-22 10:36:00,36.8,31.5,30.14,SW,229,8.0,8.0,81,0.00,,---,0.28,VWS V14.01,2013-02-22 15:36:00,
2013-02-22 10:41:00,37.0,31.7,30.14,ESE,109,20.0,20.0,81,0.00,,---,0.28,VWS V14.01,2013-02-22 15:41:00,
2013-02-22 10:46:00,37.3,31.7,30.14,WSW,237,14.0,14.0,80,0.00,,---,0.28,VWS V14.01,2013-02-22 15:46:00,
2013-02-22 10:51:00,37.6,32.6,30.14,SW,231,0.0,11.0,82,0.00,,---,0.28,VWS V14.01,2013-02-22 15:51:00,
2013-02-22 10:56:00,37.9,32.0,30.14,SSW,208,10.0,11.0,79,0.00,,---,0.28,VWS V14.01,2013-02-22 15:56:00,
2013-02-22 11:01:00,38.2,32.6,30.14,SE,146,4.0,8.0,80,0.00,,---,0.28,VWS V14.01,2013-02-22 16:01:00,
2013-02-22 11:06:00,38.3,32.7,30.14,ESE,114,8.0,8.0,80,0.00,,---,0.28,VWS V14.01,2013-02-22 16:06:00,
2013-02-22 11:11:00,38.3,32.0,30.14,SW,236,14.0,14.0,78,0.00,,---,0.28,VWS V14.01,2013-02-22 16:11:00,
2013-02-22 11:16:00,38.6,33.6,30.14,SW,218,14.0,14.0,82,0.00,,---,0.28,VWS V14.01,2013-02-22 16:16:00,
2013-02-22 11:21:00,38.8,32.9,30.13,WSW,253,12.0,12.0,79,0.00,,---,0.28,VWS V14.01,2013-02-22 16:21:00,
2013-02-22 11:26:00,38.9,33.6,30.13,West,269,2.0,11.0,81,0.00,,---,0.28,VWS V14.01,2013-02-22 16:26:00,
2013-02-22 11:31:00,39.2,33.6,30.13,East,98,8.0,8.0,80,0.00,,---,0.28,VWS V14.01,2013-02-22 16:31:00,
2013-02-22 11:36:00,39.2,32.6,30.12,WNW,299,2.0,14.0,77,0.00,,---,0.28,VWS V14.01,2013-02-22 16:36:00,
2013-02-22 11:41:00,39.2,32.6,30.12,WNW,285,0.0,7.0,77,0.00,,---,0.28,VWS V14.01,2013-02-22 16:41:00,
2013-02-22 11:46:00,39.2,33.2,30.12,WNW,301,12.0,12.0,79,0.00,,---,0.28,VWS V14.01,2013-02-22 16:46:00,
2013-02-22 11:51:00,39.3,33.3,30.12,North,5,10.0,11.0,79,0.00,,---,0.28,VWS V14.01,2013-02-22 16:51:00,
2013-02-22 11:57:00,39.2,33.2,30.12,West,279,4.0,11.0,79,0.00,,---,0.28,VWS V14.01,2013-02-22 16:57:00,
2013-02-22 12:02:00,39.2,33.6,30.12,SSE,165,4.0,8.0,80,0.00,,---,0.28,VWS V14.01,2013-02-22 17:02:00,
2013-02-22 12:07:00,39.1,33.2,30.12,East,95,4.0,6.0,79,0.00,,---,0.28,VWS V14.01,2013-02-22 17:07:00,
2013-02-22 12:12:00,38.8,32.9,30.12,East,81,10.0,11.0,79,0.00,,---,0.28,VWS V14.01,2013-02-22 17:12:00,
2013-02-22 12:17:00,38.8,33.2,30.12,SSW,202,0.0,5.0,80,0.00,,---,0.28,VWS V14.01,2013-02-22 17:17:00,
2013-02-22 12:22:00,38.9,33.6,30.12,SSW,203,0.0,2.0,81,0.00,,---,0.28,VWS V14.01,2013-02-22 17:22:00,
2013-02-22 12:27:00,39.1,34.1,30.12,NE,54,2.0,5.0,82,0.00,,---,0.28,VWS V14.01,2013-02-22 17:27:00,
2013-02-22 12:32:00,38.9,33.6,30.11,East,100,14.0,14.0,81,0.00,,---,0.28,VWS V14.01,2013-02-22 17:32:00,
2013-02-22 12:37:00,38.6,33.3,30.11,East,101,16.0,16.0,81,0.00,,---,0.28,VWS V14.01,2013-02-22 17:37:00,
2013-02-22 12:42:00,38.3,33.6,30.11,ESE,116,2.0,10.0,83,0.00,,---,0.28,VWS V14.01,2013-02-22 17:42:00,
2013-02-22 12:47:00,38.2,33.8,30.11,ESE,120,8.0,8.0,84,0.00,,---,0.28,VWS V14.01,2013-02-22 17:47:00,
2013-02-22 12:52:00,38.3,34.5,30.11,SSE,167,10.0,10.0,86,0.00,,---,0.28,VWS V14.01,2013-02-22 17:52:00,
2013-02-22 12:57:00,38.3,34.2,30.11,East,91,10.0,11.0,85,0.00,,---,0.28,VWS V14.01,2013-02-22 17:57:00,
2013-02-22 13:02:00,38.5,34.7,30.10,ESE,103,12.0,12.0,86,0.00,,---,0.28,VWS V14.01,2013-02-22 18:02:00,
2013-02-22 13:07:00,38.3,34.5,30.10,East,91,10.0,10.0,86,0.00,,---,0.28,VWS V14.01,2013-02-22 18:07:00,
2013-02-22 13:12:00,38.3,34.5,30.10,SW,216,2.0,10.0,86,0.00,,---,0.28,VWS V14.01,2013-02-22 18:12:00,
2013-02-22 13:17:00,38.5,34.7,30.09,NE,39,4.0,9.0,86,0.00,,---,0.28,VWS V14.01,2013-02-22 18:17:00,
2013-02-22 13:22:00,38.8,35.6,30.09,ESE,109,10.0,10.0,88,0.00,,---,0.28,VWS V14.01,2013-02-22 18:22:00,
2013-02-22 13:27:00,38.8,35.0,30.09,East,88,14.0,14.0,86,0.00,,---,0.28,VWS V14.01,2013-02-22 18:27:00,
2013-02-22 13:32:00,38.8,35.3,30.08,East,94,14.0,14.0,87,0.00,,---,0.28,VWS V14.01,2013-02-22 18:32:00,
2013-02-22 13:37:00,38.8,35.8,30.08,ESE,109,18.0,18.0,89,0.00,,---,0.28,VWS V14.01,2013-02-22 18:37:00,
2013-02-22 13:42:00,38.5,35.0,30.08,ENE,65,18.0,18.0,87,0.00,,---,0.28,VWS V14.01,2013-02-22 18:42:00,
2013-02-22 13:47:00,38.3,35.1,30.08,ESE,109,12.0,13.0,88,0.00,,---,0.28,VWS V14.01,2013-02-22 18:47:00,
2013-02-22 13:52:00,38.3,35.3,30.08,NNE,30,4.0,9.0,89,0.00,,---,0.28,VWS V14.01,2013-02-22 18:52:00,
2013-02-22 13:57:00,38.5,35.8,30.08,East,90,12.0,12.0,90,0.00,,---,0.28,VWS V14.01,2013-02-22 18:57:00,
2013-02-22 14:02:00,38.5,35.5,30.07,NE,46,10.0,14.0,89,0.00,,---,0.28,VWS V14.01,2013-02-22 19:02:00,
2013-02-22 14:07:00,38.5,35.5,30.07,SE,140,4.0,10.0,89,0.00,,---,0.28,VWS V14.01,2013-02-22 19:07:00,
2013-02-22 14:12:00,38.8,35.8,30.07,East,90,2.0,5.0,89,0.00,,---,0.28,VWS V14.01,2013-02-22 19:12:00,
2013-02-22 14:17:00,39.1,36.4,30.07,NE,44,16.0,16.0,90,0.00,,---,0.28,VWS V14.01,2013-02-22 19:17:00,
2013-02-22 14:22:00,39.2,36.2,30.07,NNE,30,0.0,12.0,89,0.00,,---,0.28,VWS V14.01,2013-02-22 19:22:00,
2013-02-22 14:27:00,39.5,36.5,30.07,ENE,74,8.0,8.0,89,0.00,,---,0.28,VWS V14.01,2013-02-22 19:27:00,
2013-02-22 14:32:00,39.9,36.6,30.07,East,100,14.0,14.0,88,0.00,,---,0.28,VWS V14.01,2013-02-22 19:32:00,
2013-02-22 14:38:00,40.2,36.9,30.07,ESE,105,0.0,9.0,88,0.00,,---,0.28,VWS V14.01,2013-02-22 19:38:00,
2013-02-22 14:43:00,40.3,36.8,30.07,East,80,8.0,8.0,87,0.00,,---,0.28,VWS V14.01,2013-02-22 19:43:00,
2013-02-22 14:48:00,40.3,36.8,30.05,ESE,118,18.0,18.0,87,0.00,,---,0.28,VWS V14.01,2013-02-22 19:48:00,
2013-02-22 14:53:00,40.2,36.3,30.05,ESE,109,18.0,18.0,86,0.00,,---,0.28,VWS V14.01,2013-02-22 19:53:00,
2013-02-22 14:58:00,40.3,36.8,30.05,NNE,24,4.0,4.0,87,0.00,,---,0.28,VWS V14.01,2013-02-22 19:58:00,
2013-02-22 15:03:00,40.5,37.2,30.05,NW,323,2.0,2.0,88,0.00,,---,0.28,VWS V14.01,2013-02-22 20:03:00,
2013-02-22 15:08:00,40.6,37.0,30.05,SE,136,2.0,2.0,87,0.00,,---,0.28,VWS V14.01,2013-02-22 20:08:00,
2013-02-22 15:13:00,40.8,37.2,30.05,NE,55,4.0,6.0,87,0.00,,---,0.28,VWS V14.01,2013-02-22 20:13:00,
2013-02-22 15:18:00,40.9,37.3,30.05,West,262,4.0,4.0,87,0.00,,---,0.28,VWS V14.01,2013-02-22 20:18:00,
2013-02-22 15:23:00,40.9,37.3,30.05,NNE,13,4.0,4.0,87,0.00,,---,0.28,VWS V14.01,2013-02-22 20:23:00,
2013-02-22 15:28:00,40.9,37.0,30.05,ENE,66,2.0,2.0,86,0.00,,---,0.28,VWS V14.01,2013-02-22 20:28:00,
2013-02-22 15:33:00,40.9,37.0,30.06,ENE,66,2.0,2.0,86,0.00,,---,0.28,VWS V14.01,2013-02-22 20:33:00,
2013-02-22 15:38:00,40.9,37.0,30.06,ENE,66,0.0,0.0,86,0.00,,---,0.28,VWS V14.01,2013-02-22 20:38:00,
2013-02-22 15:43:00,40.8,36.9,30.06,East,97,4.0,5.0,86,0.00,,---,0.28,VWS V14.01,2013-02-22 20:43:00,
2013-02-22 15:48:00,40.3,36.5,30.05,SE,138,2.0,5.0,86,0.00,,---,0.28,VWS V14.01,2013-02-22 20:48:00,
2013-02-22 15:53:00,40.1,36.5,30.05,ENE,73,16.0,16.0,87,0.00,,---,0.28,VWS V14.01,2013-02-22 20:53:00,
2013-02-22 15:58:00,39.8,36.5,30.05,East,90,2.0,2.0,88,0.00,,---,0.28,VWS V14.01,2013-02-22 20:58:00,
2013-02-22 16:03:00,39.6,36.6,30.05,NNE,19,0.0,4.0,89,0.00,,---,0.28,VWS V14.01,2013-02-22 21:03:00,
2013-02-22 16:08:00,39.5,36.5,30.05,East,94,4.0,4.0,89,0.00,,---,0.28,VWS V14.01,2013-02-22 21:08:00,
2013-02-22 16:13:00,39.5,36.5,30.05,East,101,8.0,8.0,89,0.00,,---,0.28,VWS V14.01,2013-02-22 21:13:00,
2013-02-22 16:18:00,39.5,36.5,30.06,ESE,109,0.0,1.0,89,0.00,,---,0.28,VWS V14.01,2013-02-22 21:18:00,
2013-02-22 16:23:00,39.3,36.6,30.06,NE,35,4.0,4.0,90,0.00,,---,0.28,VWS V14.01,2013-02-22 21:23:00,
2013-02-22 16:28:00,39.5,36.8,30.06,NE,36,2.0,2.0,90,0.00,,---,0.28,VWS V14.01,2013-02-22 21:28:00,
2013-02-22 16:33:00,39.5,37.1,30.04,NE,36,2.0,2.0,91,0.00,,---,0.28,VWS V14.01,2013-02-22 21:33:00,
2013-02-22 16:38:00,39.5,37.1,30.04,NE,42,2.0,3.0,91,0.00,,---,0.28,VWS V14.01,2013-02-22 21:38:00,
2013-02-22 16:43:00,39.5,37.4,30.04,NE,41,0.0,1.0,92,0.00,,---,0.28,VWS V14.01,2013-02-22 21:43:00,
2013-02-22 16:48:00,39.6,37.5,30.04,East,93,4.0,5.0,92,0.00,,---,0.28,VWS V14.01,2013-02-22 21:48:00,
2013-02-22 16:53:00,39.5,37.4,30.04,East,88,2.0,2.0,92,0.00,,---,0.28,VWS V14.01,2013-02-22 21:53:00,
2013-02-22 16:58:00,39.5,37.4,30.04,NE,38,2.0,5.0,92,0.00,,---,0.28,VWS V14.01,2013-02-22 21:58:00,
2013-02-22 17:03:00,39.6,37.5,30.03,ENE,60,2.0,2.0,92,0.00,,---,0.28,VWS V14.01,2013-02-22 22:03:00,
2013-02-22 17:08:00,39.6,37.5,30.03,East,96,2.0,4.0,92,0.00,,---,0.28,VWS V14.01,2013-02-22 22:08:00,
2013-02-22 17:14:00,39.6,37.5,30.03,NNE,30,6.0,6.0,92,0.00,,---,0.28,VWS V14.01,2013-02-22 22:14:00,
2013-02-22 17:19:00,39.6,37.5,30.04,NNE,30,0.0,1.0,92,0.00,,---,0.28,VWS V14.01,2013-02-22 22:19:00,
2013-02-22 17:24:00,39.8,37.7,30.04,NNE,31,0.0,0.0,92,0.00,,---,0.28,VWS V14.01,2013-02-22 22:24:00,
2013-02-22 17:29:00,39.8,37.7,30.04,NNE,30,2.0,2.0,92,0.00,,---,0.28,VWS V14.01,2013-02-22 22:29:00,
2013-02-22 17:34:00,39.8,37.7,30.04,NE,52,0.0,1.0,92,0.00,,---,0.28,VWS V14.01,2013-02-22 22:34:00,
2013-02-22 17:39:00,39.8,37.7,30.04,NE,52,0.0,1.0,92,0.00,,---,0.28,VWS V14.01,2013-02-22 22:39:00,
2013-02-22 17:44:00,39.8,37.7,30.04,NE,52,2.0,2.0,92,0.00,,---,0.28,VWS V14.01,2013-02-22 22:44:00,
2013-02-22 17:49:00,39.8,37.7,30.04,East,101,2.0,6.0,92,0.00,,---,0.28,VWS V14.01,2013-02-22 22:49:00,
2013-02-22 17:54:00,39.6,37.5,30.04,ESE,103,0.0,4.0,92,0.00,,---,0.28,VWS V14.01,2013-02-22 22:54:00,
2013-02-22 17:59:00,39.6,37.5,30.04,ESE,103,4.0,5.0,92,0.00,,---,0.28,VWS V14.01,2013-02-22 22:59:00,
2013-02-22 18:04:00,39.6,37.5,30.04,East,96,2.0,2.0,92,0.00,,---,0.28,VWS V14.01,2013-02-22 23:04:00,
2013-02-22 18:09:00,39.6,37.5,30.04,East,96,2.0,3.0,92,0.00,,---,0.28,VWS V14.01,2013-02-22 23:09:00,
2013-02-22 18:14:00,39.5,37.4,30.04,East,96,0.0,0.0,92,0.00,,---,0.28,VWS V14.01,2013-02-22 23:14:00,
2013-02-22 18:19:00,39.5,37.4,30.05,East,96,0.0,1.0,92,0.00,,---,0.28,VWS V14.01,2013-02-22 23:19:00,
2013-02-22 18:24:00,39.5,37.4,30.05,East,96,2.0,4.0,92,0.00,,---,0.28,VWS V14.01,2013-02-22 23:24:00,
2013-02-22 18:29:00,39.5,37.4,30.05,East,96,0.0,1.0,92,0.00,,---,0.28,VWS V14.01,2013-02-22 23:29:00,
2013-02-22 18:34:00,39.3,37.2,30.04,East,96,2.0,4.0,92,0.00,,---,0.28,VWS V14.01,2013-02-22 23:34:00,
2013-02-22 18:39:00,39.3,37.2,30.04,North,10,0.0,2.0,92,0.00,,---,0.28,VWS V14.01,2013-02-22 23:39:00,
2013-02-22 18:44:00,39.2,37.1,30.04,East,99,4.0,5.0,92,0.00,,---,0.28,VWS V14.01,2013-02-22 23:44:00,
2013-02-22 18:49:00,39.3,37.2,30.05,ESE,112,20.0,20.0,92,0.00,,---,0.28,VWS V14.01,2013-02-22 23:49:00,
2013-02-22 18:54:00,39.2,37.1,30.05,ENE,77,8.0,8.0,92,0.00,,---,0.28,VWS V14.01,2013-02-22 23:54:00,
2013-02-22 18:59:00,39.2,37.1,30.05,East,80,4.0,5.0,92,0.00,,---,0.28,VWS V14.01,2013-02-22 23:59:00,
2013-02-22 19:04:00,39.1,37.0,30.04,East,88,0.0,1.0,92,0.00,,---,0.28,VWS V14.01,2013-02-23 00:04:00,
2013-02-22 19:09:00,39.1,37.0,30.04,East,88,2.0,5.0,92,0.00,,---,0.28,VWS V14.01,2013-02-23 00:09:00,
2013-02-22 19:14:00,39.1,37.2,30.04,East,88,0.0,2.0,93,0.00,,---,0.28,VWS V14.01,2013-02-23 00:14:00,
2013-02-22 19:19:00,39.1,37.0,30.06,East,88,0.0,1.0,92,0.00,,---,0.28,VWS V14.01,2013-02-23 00:19:00,
2013-02-22 19:24:00,39.1,37.2,30.06,East,88,0.0,2.0,93,0.00,,---,0.28,VWS V14.01,2013-02-23 00:24:00,
2013-02-22 19:29:00,39.1,37.2,30.06,East,88,0.0,2.0,93,0.00,,---,0.28,VWS V14.01,2013-02-23 00:29:00,
2013-02-22 19:34:00,39.1,37.2,30.06,East,88,0.0,2.0,93,0.00,,---,0.28,VWS V14.01,2013-02-23 00:34:00,
2013-02-22 19:39:00,39.1,37.2,30.06,East,88,4.0,4.0,93,0.00,,---,0.28,VWS V14.01,2013-02-23 00:39:00,
2013-02-22 19:44:00,39.1,37.2,30.06,East,88,0.0,2.0,93,0.00,,---,0.28,VWS V14.01,2013-02-23 00:44:00,
2013-02-22 19:49:00,39.1,37.2,30.06,East,88,4.0,4.0,93,0.00,,---,0.28,VWS V14.01,2013-02-23 00:49:00,
2013-02-22 19:54:00,39.1,37.2,30.06,East,88,0.0,1.0,93,0.00,,---,0.28,VWS V14.01,2013-02-23 00:54:00,
2013-02-22 20:00:00,39.1,37.2,30.06,East,88,0.0,0.0,93,0.00,,---,0.28,VWS V14.01,2013-02-23 01:00:00,
2013-02-22 20:05:00,38.9,37.0,30.06,East,88,0.0,2.0,93,0.00,,---,0.28,VWS V14.01,2013-02-23 01:05:00,
2013-02-22 20:10:00,38.9,37.0,30.06,East,88,0.0,0.0,93,0.00,,---,0.28,VWS V14.01,2013-02-23 01:10:00,
2013-02-22 20:15:00,38.9,37.0,30.06,East,88,0.0,0.0,93,0.00,,---,0.28,VWS V14.01,2013-02-23 01:15:00,
2013-02-22 20:20:00,38.9,37.0,30.06,East,88,0.0,0.0,93,0.00,,---,0.28,VWS V14.01,2013-02-23 01:20:00,
2013-02-22 20:25:00,38.9,37.0,30.06,East,88,0.0,0.0,93,0.00,,---,0.28,VWS V14.01,2013-02-23 01:25:00,
2013-02-22 20:30:00,38.9,37.0,30.06,East,88,2.0,2.0,93,0.00,,---,0.28,VWS V14.01,2013-02-23 01:30:00,
2013-02-22 20:35:00,39.1,37.2,30.06,East,88,0.0,1.0,93,0.00,,---,0.28,VWS V14.01,2013-02-23 01:35:00,
2013-02-22 20:40:00,38.9,37.0,30.06,East,88,0.0,1.0,93,0.00,,---,0.28,VWS V14.01,2013-02-23 01:40:00,
2013-02-22 20:45:00,38.9,37.0,30.06,East,88,0.0,0.0,93,0.00,,---,0.28,VWS V14.01,2013-02-23 01:45:00,
2013-02-22 20:50:00,38.9,37.0,30.05,East,88,0.0,4.0,93,0.00,,---,0.28,VWS V14.01,2013-02-23 01:50:00,
2013-02-22 20:55:00,38.9,37.0,30.05,East,88,0.0,1.0,93,0.00,,---,0.28,VWS V14.01,2013-02-23 01:55:00,
2013-02-22 21:00:00,38.9,37.0,30.05,ENE,78,10.0,10.0,93,0.00,,---,0.28,VWS V14.01,2013-02-23 02:00:00,
2013-02-22 21:05:00,38.9,37.0,30.05,SW,221,2.0,5.0,93,0.00,,---,0.28,VWS V14.01,2013-02-23 02:05:00,
2013-02-22 21:10:00,39.1,37.2,30.05,NE,46,2.0,5.0,93,0.00,,---,0.28,VWS V14.01,2013-02-23 02:10:00,
2013-02-22 21:15:00,39.1,37.2,30.05,ESE,103,0.0,5.0,93,0.00,,---,0.28,VWS V14.01,2013-02-23 02:15:00,
2013-02-22 21:20:00,39.1,37.2,30.05,East,82,0.0,2.0,93,0.00,,---,0.28,VWS V14.01,2013-02-23 02:20:00,
2013-02-22 21:25:00,39.2,37.3,30.05,East,90,0.0,2.0,93,0.00,,---,0.28,VWS V14.01,2013-02-23 02:25:00,
2013-02-22 21:30:00,39.2,37.3,30.05,ESE,107,0.0,4.0,93,0.00,,---,0.28,VWS V14.01,2013-02-23 02:30:00,
2013-02-22 21:35:00,39.2,37.3,30.05,ESE,107,0.0,0.0,93,0.00,,---,0.28,VWS V14.01,2013-02-23 02:35:00,
2013-02-22 21:40:00,39.2,37.3,30.05,ESE,107,0.0,1.0,93,0.00,,---,0.28,VWS V14.01,2013-02-23 02:40:00,
2013-02-22 21:45:00,39.3,37.5,30.05,East,93,8.0,8.0,93,0.00,,---,0.28,VWS V14.01,2013-02-23 02:45:00,
2013-02-22 21:50:00,39.3,37.5,30.04,ESE,106,0.0,5.0,93,0.00,,---,0.28,VWS V14.01,2013-02-23 02:50:00,
2013-02-22 21:55:00,39.3,37.2,30.04,NE,55,4.0,6.0,92,0.00,,---,0.28,VWS V14.01,2013-02-23 02:55:00,
2013-02-22 22:00:00,39.2,37.1,30.04,East,97,2.0,6.0,92,0.00,,---,0.28,VWS V14.01,2013-02-23 03:00:00,
2013-02-22 22:05:00,39.2,37.1,30.02,SW,236,8.0,8.0,92,0.00,,---,0.28,VWS V14.01,2013-02-23 03:05:00,
2013-02-22 22:10:00,39.2,37.1,30.02,WSW,238,2.0,2.0,92,0.00,,---,0.28,VWS V14.01,2013-02-23 03:10:00,
2013-02-22 22:15:00,39.2,37.1,30.02,WSW,238,0.0,1.0,92,0.00,,---,0.28,VWS V14.01,2013-02-23 03:15:00,
2013-02-22 22:20:00,39.2,37.1,30.03,WSW,238,0.0,0.0,92,0.00,,---,0.28,VWS V14.01,2013-02-23 03:20:00,
2013-02-22 22:25:00,39.2,37.3,30.03,WSW,238,0.0,0.0,93,0.00,,---,0.28,VWS V14.01,2013-02-23 03:25:00,
2013-02-22 22:30:00,39.2,37.3,30.03,WSW,238,0.0,1.0,93,0.00,,---,0.28,VWS V14.01,2013-02-23 03:30:00,
2013-02-22 22:35:00,39.2,37.3,30.03,WSW,238,0.0,0.0,93,0.00,,---,0.28,VWS V14.01,2013-02-23 03:35:00,
2013-02-22 22:41:00,39.2,37.3,30.03,SW,229,2.0,2.0,93,0.00,,---,0.28,VWS V14.01,2013-02-23 03:41:00,
2013-02-22 22:46:00,39.2,37.3,30.03,SW,229,0.0,0.0,93,0.00,,---,0.28,VWS V14.01,2013-02-23 03:46:00,
2013-02-22 22:51:00,39.3,37.5,30.02,SW,232,0.0,2.0,93,0.00,,---,0.28,VWS V14.01,2013-02-23 03:51:00,
2013-02-22 22:56:00,39.2,37.3,30.02,East,81,2.0,3.0,93,0.00,,---,0.28,VWS V14.01,2013-02-23 03:56:00,
2013-02-22 23:01:00,39.2,37.3,30.02,ENE,73,4.0,6.0,93,0.00,,---,0.28,VWS V14.01,2013-02-23 04:01:00,
2013-02-22 23:06:00,39.2,37.3,30.01,ENE,70,0.0,4.0,93,0.00,,---,0.28,VWS V14.01,2013-02-23 04:06:00,
2013-02-22 23:11:00,39.1,37.2,30.01,NNE,20,0.0,2.0,93,0.00,,---,0.28,VWS V14.01,2013-02-23 04:11:00,
2013-02-22 23:16:00,38.9,37.0,30.01,NNE,20,0.0,1.0,93,0.00,,---,0.28,VWS V14.01,2013-02-23 04:16:00,
2013-02-22 23:21:00,38.9,37.0,30.02,NNE,20,0.0,0.0,93,0.00,,---,0.28,VWS V14.01,2013-02-23 04:21:00,
2013-02-22 23:26:00,38.9,37.0,30.02,NNE,20,0.0,1.0,93,0.00,,---,0.28,VWS V14.01,2013-02-23 04:26:00,
2013-02-22 23:31:00,38.9,37.0,30.02,NNE,20,2.0,2.0,93,0.00,,---,0.28,VWS V14.01,2013-02-23 04:31:00,
2013-02-22 23:36:00,38.9,37.0,30.01,NNE,20,0.0,0.0,93,0.00,,---,0.28,VWS V14.01,2013-02-23 04:36:00,
2013-02-22 23:41:00,38.8,37.0,30.01,ENE,69,2.0,4.0,93,0.00,,---,0.28,VWS V14.01,2013-02-23 04:41:00,
2013-02-22 23:46:00,38.8,37.0,30.01,ENE,69,0.0,2.0,93,0.00,,---,0.28,VWS V14.01,2013-02-23 04:46:00,
2013-02-22 23:51:00,38.8,37.0,30.01,ENE,69,2.0,4.0,93,0.00,,---,0.28,VWS V14.01,2013-02-23 04:51:00,
2013-02-22 23:56:00,38.6,36.8,30.01,NE,44,12.0,12.0,93,0.00,,---,0.28,VWS V14.01,2013-02-23 04:56:00,